createdAt,value
2019-06-01T00:05:16.570Z,6.33
2019-06-01T00:15:20.164Z,6.83
2019-06-01T00:25:23.736Z,7.13
2019-06-01T00:35:27.317Z,7.45
2019-06-01T00:45:30.930Z,7.33
2019-06-01T00:55:34.551Z,7.20
2019-06-01T01:05:38.870Z,7.10
2019-06-01T01:15:42.629Z,7.05
2019-06-01T01:25:46.389Z,8.58
2019-06-01T01:35:49.969Z,6.62
2019-06-01T01:45:54.736Z,7.90
2019-06-01T01:55:59.080Z,6.78
2019-06-01T02:06:03.372Z,7.05
2019-06-01T02:16:07.035Z,7.00
2019-06-01T02:26:10.585Z,7.12
2019-06-01T02:36:14.165Z,7.37
2019-06-01T02:46:17.747Z,7.87
2019-06-01T02:56:21.324Z,7.78
2019-06-01T03:06:24.895Z,7.33
2019-06-01T03:16:29.657Z,7.60
2019-06-01T03:26:33.428Z,7.75
2019-06-01T03:36:36.995Z,8.10
2019-06-01T03:46:40.569Z,7.87
2019-06-01T03:56:44.163Z,8.45
2019-06-01T04:06:47.736Z,7.75
2019-06-01T04:16:51.289Z,8.55
2019-06-01T04:26:54.905Z,8.58
2019-06-01T04:36:58.513Z,9.80
2019-06-01T04:47:02.101Z,9.25
2019-06-01T04:57:06.765Z,8.60
2019-06-01T05:07:11.202Z,9.60
2019-06-01T05:17:16.551Z,9.95
2019-06-01T05:27:20.332Z,9.18
2019-06-01T05:37:23.918Z,9.13
2019-06-01T05:47:27.535Z,8.75
2019-06-01T05:57:31.092Z,10.65
2019-06-01T06:07:34.665Z,9.10
2019-06-01T06:17:38.271Z,8.88
2019-06-01T06:27:41.865Z,9.50
2019-06-01T06:37:45.448Z,10.48
2019-06-01T06:47:49.037Z,8.48
2019-06-01T06:57:52.632Z,9.70
2019-06-01T07:07:56.177Z,8.90
2019-06-01T07:17:59.749Z,9.35
2019-06-01T07:28:03.312Z,9.60
2019-06-01T07:38:06.927Z,9.60
2019-06-01T07:48:10.493Z,9.53
2019-06-01T07:58:14.114Z,10.50
2019-06-01T08:08:17.717Z,9.40
2019-06-01T08:18:21.934Z,8.83
2019-06-01T08:28:26.503Z,11.03
2019-06-01T08:38:31.675Z,15.90
2019-06-01T08:48:35.876Z,12.00
2019-06-01T08:58:42.387Z,10.72
2019-06-01T09:08:48.579Z,11.23
2019-06-01T09:18:55.369Z,9.83
2019-06-01T09:29:03.125Z,15.08
2019-06-01T09:39:11.474Z,12.60
2019-06-01T09:49:17.385Z,12.43
2019-06-01T09:59:22.543Z,12.10
2019-06-01T10:09:29.476Z,9.60
2019-06-01T10:19:35.185Z,20.48
2019-06-01T10:29:43.080Z,12.33
2019-06-01T10:39:51.020Z,8.48
2019-06-01T10:49:55.772Z,11.10
2019-06-01T10:59:59.876Z,8.60
2019-06-01T11:10:04.862Z,8.73
2019-06-01T11:20:08.812Z,10.38
2019-06-01T11:30:12.838Z,15.23
2019-06-01T11:40:16.532Z,9.23
2019-06-01T11:50:20.980Z,10.07
2019-06-01T12:00:24.548Z,9.83
2019-06-01T12:10:28.157Z,11.55
2019-06-01T12:20:31.705Z,11.95
2019-06-01T12:30:35.359Z,12.00
2019-06-01T12:40:39.154Z,9.33
2019-06-01T12:50:46.695Z,7.30
2019-06-01T13:00:48.363Z,7.80
2019-06-01T13:10:52.015Z,7.97
2019-06-01T13:20:56.051Z,7.35
2019-06-01T13:30:59.881Z,7.42
2019-06-01T13:41:06.023Z,9.23
2019-06-01T13:51:11.233Z,7.06
2019-06-01T14:01:15.069Z,7.63
2019-06-01T14:11:18.615Z,7.55
2019-06-01T14:21:22.299Z,7.72
2019-06-01T14:31:25.868Z,7.17
2019-06-01T14:41:29.475Z,7.30
2019-06-01T14:51:33.345Z,7.83
2019-06-01T15:01:37.001Z,7.95
2019-06-01T15:11:40.568Z,7.08
2019-06-01T15:21:44.149Z,7.03
2019-06-01T15:31:47.759Z,8.13
2019-06-01T15:41:52.890Z,8.08
2019-06-01T15:51:57.738Z,8.30
2019-06-01T16:02:01.472Z,7.92
2019-06-01T16:12:05.790Z,8.73
2019-06-01T16:22:09.329Z,8.08
2019-06-01T16:32:12.916Z,8.65
2019-06-01T16:42:16.508Z,9.53
2019-06-01T16:52:20.097Z,9.67
2019-06-01T17:02:23.700Z,8.73
2019-06-01T17:12:27.295Z,8.10
2019-06-01T17:22:30.910Z,9.83
2019-06-01T17:32:34.505Z,8.73
2019-06-01T17:42:38.602Z,12.30
2019-06-01T17:52:42.477Z,8.45
2019-06-01T18:02:46.659Z,9.05
2019-06-01T18:12:50.711Z,9.05
2019-06-01T18:22:56.608Z,8.23
2019-06-01T18:33:00.948Z,10.10
2019-06-01T18:43:12.071Z,9.55
2019-06-01T18:53:17.024Z,10.32
2019-06-01T19:03:21.072Z,14.93
2019-06-01T19:13:25.889Z,12.40
2019-06-01T19:23:30.173Z,19.48
2019-06-01T19:33:34.369Z,12.82
2019-06-01T19:43:38.758Z,12.03
2019-06-01T19:53:42.983Z,16.07
2019-06-01T20:03:47.079Z,11.53
2019-06-01T20:13:51.435Z,63.05
2019-06-01T20:23:56.175Z,202.45
2019-06-01T20:34:00.775Z,186.18
2019-06-01T20:44:06.184Z,128.35
2019-06-01T20:54:12.899Z,104.00
2019-06-01T21:04:18.035Z,79.17
2019-06-01T21:14:21.759Z,65.50
2019-06-01T21:24:25.500Z,48.52
2019-06-01T21:34:29.055Z,49.80
2019-06-01T21:44:32.693Z,46.02
2019-06-01T21:54:36.337Z,39.30
2019-06-01T22:04:39.919Z,31.82
2019-06-01T22:14:43.869Z,28.85
2019-06-01T22:24:47.687Z,26.12
2019-06-01T22:34:51.379Z,25.70
2019-06-01T22:44:55.348Z,22.25
2019-06-01T22:54:58.976Z,19.92
2019-06-01T23:05:02.632Z,17.98
2019-06-01T23:15:07.325Z,18.50
2019-06-01T23:25:10.915Z,18.42
2019-06-01T23:35:14.540Z,17.63
2019-06-01T23:45:18.089Z,16.60
2019-06-01T23:55:21.667Z,16.17
